sensor_id;sensor_type;location;lat;lon;timestamp;temperature;humidity
28177;DHT22;15461;41.652;9.378;2023-05-27T00:00:22;18.80;99.90
28177;DHT22;15461;41.652;9.378;2023-05-27T00:02:48;18.90;99.90
28177;DHT22;15461;41.652;9.378;2023-05-27T00:05:14;18.80;99.90
28177;DHT22;15461;41.652;9.378;2023-05-27T00:07:40;18.80;99.90
28177;DHT22;15461;41.652;9.378;2023-05-27T00:10:06;18.80;99.90
28177;DHT22;15461;41.652;9.378;2023-05-27T00:12:32;18.80;99.90
28177;DHT22;15461;41.652;9.378;2023-05-27T00:14:58;18.80;99.90
28177;DHT22;15461;41.652;9.378;2023-05-27T00:17:24;18.70;99.90
28177;DHT22;15461;41.652;9.378;2023-05-27T00:19:51;18.60;99.90
28177;DHT22;15461;41.652;9.378;2023-05-27T00:22:19;18.60;99.90
28177;DHT22;15461;41.652;9.378;2023-05-27T00:24:45;18.50;99.90
28177;DHT22;15461;41.652;9.378;2023-05-27T00:27:11;18.40;99.90
28177;DHT22;15461;41.652;9.378;2023-05-27T00:29:37;18.40;99.90
28177;DHT22;15461;41.652;9.378;2023-05-27T00:32:03;18.20;99.90
28177;DHT22;15461;41.652;9.378;2023-05-27T00:34:31;18.20;99.90
28177;DHT22;15461;41.652;9.378;2023-05-27T00:36:57;18.10;99.90
28177;DHT22;15461;41.652;9.378;2023-05-27T00:39:23;17.90;99.90
28177;DHT22;15461;41.652;9.378;2023-05-27T00:41:50;17.90;99.90
28177;DHT22;15461;41.652;9.378;2023-05-27T00:44:17;17.80;99.90
28177;DHT22;15461;41.652;9.378;2023-05-27T00:46:44;17.80;99.90
28177;DHT22;15461;41.652;9.378;2023-05-27T00:49:12;17.70;99.90
28177;DHT22;15461;41.652;9.378;2023-05-27T00:51:38;17.70;99.90
28177;DHT22;15461;41.652;9.378;2023-05-27T00:54:05;17.60;99.90
28177;DHT22;15461;41.652;9.378;2023-05-27T00:56:32;17.60;99.90
28177;DHT22;15461;41.652;9.378;2023-05-27T00:58:58;17.60;99.90
28177;DHT22;15461;41.652;9.378;2023-05-27T01:01:24;17.60;99.90
28177;DHT22;15461;41.652;9.378;2023-05-27T01:03:54;17.60;99.90
28177;DHT22;15461;41.652;9.378;2023-05-27T01:09:38;17.50;99.90
28177;DHT22;15461;41.652;9.378;2023-05-27T01:12:31;17.50;99.90
28177;DHT22;15461;41.652;9.378;2023-05-27T01:15:02;17.40;99.90
28177;DHT22;15461;41.652;9.378;2023-05-27T01:17:31;17.50;99.90
28177;DHT22;15461;41.652;9.378;2023-05-27T01:19:59;17.50;99.90
28177;DHT22;15461;41.652;9.378;2023-05-27T01:22:30;17.30;99.90
28177;DHT22;15461;41.652;9.378;2023-05-27T01:24:56;17.20;99.90
28177;DHT22;15461;41.652;9.378;2023-05-27T01:27:23;17.10;99.90
28177;DHT22;15461;41.652;9.378;2023-05-27T01:29:52;17.00;99.90
28177;DHT22;15461;41.652;9.378;2023-05-27T01:32:44;17.00;99.90
28177;DHT22;15461;41.652;9.378;2023-05-27T01:35:58;17.10;99.90
28177;DHT22;15461;41.652;9.378;2023-05-27T01:38:07;17.20;99.90
28177;DHT22;15461;41.652;9.378;2023-05-27T01:40:38;17.30;99.90
28177;DHT22;15461;41.652;9.378;2023-05-27T01:43:05;17.30;99.90
28177;DHT22;15461;41.652;9.378;2023-05-27T01:45:33;17.30;99.90
28177;DHT22;15461;41.652;9.378;2023-05-27T01:47:59;17.20;99.90
28177;DHT22;15461;41.652;9.378;2023-05-27T01:50:25;17.20;99.90
28177;DHT22;15461;41.652;9.378;2023-05-27T01:52:52;17.20;99.90
28177;DHT22;15461;41.652;9.378;2023-05-27T01:55:18;17.20;99.90
28177;DHT22;15461;41.652;9.378;2023-05-27T01:57:44;17.10;99.90
28177;DHT22;15461;41.652;9.378;2023-05-27T02:00:10;17.10;99.90
28177;DHT22;15461;41.652;9.378;2023-05-27T02:02:42;17.00;99.90
28177;DHT22;15461;41.652;9.378;2023-05-27T02:05:10;17.00;99.90
28177;DHT22;15461;41.652;9.378;2023-05-27T02:07:36;16.90;99.90
28177;DHT22;15461;41.652;9.378;2023-05-27T02:10:02;16.90;99.90
28177;DHT22;15461;41.652;9.378;2023-05-27T02:12:28;16.90;99.90
28177;DHT22;15461;41.652;9.378;2023-05-27T02:14:54;16.80;99.90
28177;DHT22;15461;41.652;9.378;2023-05-27T02:17:21;16.80;99.90
28177;DHT22;15461;41.652;9.378;2023-05-27T02:19:47;16.80;99.90
28177;DHT22;15461;41.652;9.378;2023-05-27T02:22:13;16.70;99.90
28177;DHT22;15461;41.652;9.378;2023-05-27T02:24:39;16.70;99.90
28177;DHT22;15461;41.652;9.378;2023-05-27T02:27:05;16.70;99.90
28177;DHT22;15461;41.652;9.378;2023-05-27T02:29:31;16.70;99.90
28177;DHT22;15461;41.652;9.378;2023-05-27T02:31:57;16.60;99.90
28177;DHT22;15461;41.652;9.378;2023-05-27T02:34:24;16.60;99.90
28177;DHT22;15461;41.652;9.378;2023-05-27T02:36:50;16.60;99.90
28177;DHT22;15461;41.652;9.378;2023-05-27T02:39:17;16.60;99.90
28177;DHT22;15461;41.652;9.378;2023-05-27T02:41:43;16.60;99.90
28177;DHT22;15461;41.652;9.378;2023-05-27T02:44:11;16.50;99.90
28177;DHT22;15461;41.652;9.378;2023-05-27T02:46:36;16.50;99.90
28177;DHT22;15461;41.652;9.378;2023-05-27T02:49:02;16.50;99.90
28177;DHT22;15461;41.652;9.378;2023-05-27T02:51:29;16.50;99.90
28177;DHT22;15461;41.652;9.378;2023-05-27T02:53:55;16.40;99.90
28177;DHT22;15461;41.652;9.378;2023-05-27T02:56:22;16.40;99.90
28177;DHT22;15461;41.652;9.378;2023-05-27T02:58:48;16.40;99.90
28177;DHT22;15461;41.652;9.378;2023-05-27T03:01:14;16.30;99.90
28177;DHT22;15461;41.652;9.378;2023-05-27T03:03:41;16.20;99.90
28177;DHT22;15461;41.652;9.378;2023-05-27T03:06:06;16.30;99.90
28177;DHT22;15461;41.652;9.378;2023-05-27T03:08:36;16.20;99.90
28177;DHT22;15461;41.652;9.378;2023-05-27T03:11:02;16.20;99.90
28177;DHT22;15461;41.652;9.378;2023-05-27T03:13:28;16.20;99.90
28177;DHT22;15461;41.652;9.378;2023-05-27T03:15:53;16.10;99.90
28177;DHT22;15461;41.652;9.378;2023-05-27T03:18:25;16.10;99.90
28177;DHT22;15461;41.652;9.378;2023-05-27T03:20:51;16.00;99.90
28177;DHT22;15461;41.652;9.378;2023-05-27T03:23:17;16.00;99.90
28177;DHT22;15461;41.652;9.378;2023-05-27T03:25:45;16.00;99.90
28177;DHT22;15461;41.652;9.378;2023-05-27T03:28:11;15.90;99.90
28177;DHT22;15461;41.652;9.378;2023-05-27T03:30:36;15.90;99.90
28177;DHT22;15461;41.652;9.378;2023-05-27T03:33:04;15.90;99.90
28177;DHT22;15461;41.652;9.378;2023-05-27T03:35:36;15.90;99.90
28177;DHT22;15461;41.652;9.378;2023-05-27T03:38:02;15.90;99.90
28177;DHT22;15461;41.652;9.378;2023-05-27T03:40:28;15.80;99.90
28177;DHT22;15461;41.652;9.378;2023-05-27T03:42:54;15.90;99.90
28177;DHT22;15461;41.652;9.378;2023-05-27T03:45:22;15.90;99.90
28177;DHT22;15461;41.652;9.378;2023-05-27T03:47:48;15.90;99.90
28177;DHT22;15461;41.652;9.378;2023-05-27T03:50:16;15.90;99.90
28177;DHT22;15461;41.652;9.378;2023-05-27T03:52:42;15.90;99.90
28177;DHT22;15461;41.652;9.378;2023-05-27T03:55:08;15.80;99.90
28177;DHT22;15461;41.652;9.378;2023-05-27T03:57:34;15.80;99.90
28177;DHT22;15461;41.652;9.378;2023-05-27T04:00:01;15.80;99.90
28177;DHT22;15461;41.652;9.378;2023-05-27T04:02:35;15.70;99.90
28177;DHT22;15461;41.652;9.378;2023-05-27T04:05:01;15.80;99.90
28177;DHT22;15461;41.652;9.378;2023-05-27T04:07:27;15.70;99.90
28177;DHT22;15461;41.652;9.378;2023-05-27T04:09:54;15.70;99.90
28177;DHT22;15461;41.652;9.378;2023-05-27T04:12:21;15.70;99.90
28177;DHT22;15461;41.652;9.378;2023-05-27T04:14:49;15.70;99.90
28177;DHT22;15461;41.652;9.378;2023-05-27T04:17:16;15.80;99.90
28177;DHT22;15461;41.652;9.378;2023-05-27T04:19:43;15.70;99.90
28177;DHT22;15461;41.652;9.378;2023-05-27T04:22:09;15.80;99.90
28177;DHT22;15461;41.652;9.378;2023-05-27T04:24:35;15.80;99.90
28177;DHT22;15461;41.652;9.378;2023-05-27T04:27:01;15.80;99.90
28177;DHT22;15461;41.652;9.378;2023-05-27T04:29:28;15.80;99.90
28177;DHT22;15461;41.652;9.378;2023-05-27T04:31:57;15.90;99.90
28177;DHT22;15461;41.652;9.378;2023-05-27T04:34:24;15.90;99.90
28177;DHT22;15461;41.652;9.378;2023-05-27T04:36:51;15.90;99.90
28177;DHT22;15461;41.652;9.378;2023-05-27T04:39:23;15.90;99.90
28177;DHT22;15461;41.652;9.378;2023-05-27T04:41:50;15.90;99.90
28177;DHT22;15461;41.652;9.378;2023-05-27T04:44:16;16.00;99.90
28177;DHT22;15461;41.652;9.378;2023-05-27T04:46:45;16.00;99.90
28177;DHT22;15461;41.652;9.378;2023-05-27T04:49:11;16.10;99.90
28177;DHT22;15461;41.652;9.378;2023-05-27T04:51:37;16.10;99.90
28177;DHT22;15461;41.652;9.378;2023-05-27T04:54:04;16.20;99.90
28177;DHT22;15461;41.652;9.378;2023-05-27T04:56:33;16.30;99.90
28177;DHT22;15461;41.652;9.378;2023-05-27T04:58:59;16.40;99.90
28177;DHT22;15461;41.652;9.378;2023-05-27T05:01:31;16.40;99.90
28177;DHT22;15461;41.652;9.378;2023-05-27T05:04:18;16.60;99.90
28177;DHT22;15461;41.652;9.378;2023-05-27T05:06:54;16.70;99.90
28177;DHT22;15461;41.652;9.378;2023-05-27T05:09:22;16.80;99.90
28177;DHT22;15461;41.652;9.378;2023-05-27T05:11:49;16.90;99.90
28177;DHT22;15461;41.652;9.378;2023-05-27T05:14:15;17.00;99.90
28177;DHT22;15461;41.652;9.378;2023-05-27T05:16:41;17.10;99.90
28177;DHT22;15461;41.652;9.378;2023-05-27T05:19:08;17.20;99.90
28177;DHT22;15461;41.652;9.378;2023-05-27T05:21:36;17.30;99.90
28177;DHT22;15461;41.652;9.378;2023-05-27T05:24:04;17.50;99.90
28177;DHT22;15461;41.652;9.378;2023-05-27T05:26:31;17.60;99.90
28177;DHT22;15461;41.652;9.378;2023-05-27T05:28:59;17.70;99.90
28177;DHT22;15461;41.652;9.378;2023-05-27T05:31:25;17.90;99.90
28177;DHT22;15461;41.652;9.378;2023-05-27T05:33:51;18.00;99.90
28177;DHT22;15461;41.652;9.378;2023-05-27T05:36:17;18.20;99.90
28177;DHT22;15461;41.652;9.378;2023-05-27T05:38:50;18.40;99.90
28177;DHT22;15461;41.652;9.378;2023-05-27T05:41:17;18.60;99.90
28177;DHT22;15461;41.652;9.378;2023-05-27T05:43:43;18.70;99.90
28177;DHT22;15461;41.652;9.378;2023-05-27T05:46:09;18.80;99.90
28177;DHT22;15461;41.652;9.378;2023-05-27T05:48:36;19.00;99.90
28177;DHT22;15461;41.652;9.378;2023-05-27T05:51:02;19.30;99.90
28177;DHT22;15461;41.652;9.378;2023-05-27T05:53:29;19.40;99.90
28177;DHT22;15461;41.652;9.378;2023-05-27T05:55:57;19.50;99.90
28177;DHT22;15461;41.652;9.378;2023-05-27T05:58:23;19.80;99.90
28177;DHT22;15461;41.652;9.378;2023-05-27T06:00:50;19.90;99.90
28177;DHT22;15461;41.652;9.378;2023-05-27T06:03:34;20.10;99.90
28177;DHT22;15461;41.652;9.378;2023-05-27T06:06:01;20.30;99.90
28177;DHT22;15461;41.652;9.378;2023-05-27T06:08:28;20.40;99.90
28177;DHT22;15461;41.652;9.378;2023-05-27T06:11:10;20.50;99.90
28177;DHT22;15461;41.652;9.378;2023-05-27T06:13:37;20.60;99.90
28177;DHT22;15461;41.652;9.378;2023-05-27T06:16:06;20.80;99.90
28177;DHT22;15461;41.652;9.378;2023-05-27T06:18:32;20.80;99.90
28177;DHT22;15461;41.652;9.378;2023-05-27T06:20:58;20.90;99.90
28177;DHT22;15461;41.652;9.378;2023-05-27T06:23:26;21.00;99.90
28177;DHT22;15461;41.652;9.378;2023-05-27T06:26:13;21.10;99.90
28177;DHT22;15461;41.652;9.378;2023-05-27T06:28:45;21.10;99.90
28177;DHT22;15461;41.652;9.378;2023-05-27T06:31:13;21.20;99.90
28177;DHT22;15461;41.652;9.378;2023-05-27T06:33:41;21.40;99.90
28177;DHT22;15461;41.652;9.378;2023-05-27T06:36:08;21.50;99.90
28177;DHT22;15461;41.652;9.378;2023-05-27T06:38:34;21.60;99.90
28177;DHT22;15461;41.652;9.378;2023-05-27T06:41:00;21.70;99.90
28177;DHT22;15461;41.652;9.378;2023-05-27T06:43:26;21.80;99.90
28177;DHT22;15461;41.652;9.378;2023-05-27T06:45:55;21.80;99.90
28177;DHT22;15461;41.652;9.378;2023-05-27T06:48:36;21.90;99.90
28177;DHT22;15461;41.652;9.378;2023-05-27T06:51:02;21.90;99.90
28177;DHT22;15461;41.652;9.378;2023-05-27T06:53:29;22.00;99.90
28177;DHT22;15461;41.652;9.378;2023-05-27T06:56:11;22.00;99.90
28177;DHT22;15461;41.652;9.378;2023-05-27T06:58:57;22.10;99.90
28177;DHT22;15461;41.652;9.378;2023-05-27T07:01:23;22.10;99.90
28177;DHT22;15461;41.652;9.378;2023-05-27T07:03:57;22.20;99.90
28177;DHT22;15461;41.652;9.378;2023-05-27T07:06:38;22.30;99.90
28177;DHT22;15461;41.652;9.378;2023-05-27T07:09:04;22.40;99.90
28177;DHT22;15461;41.652;9.378;2023-05-27T07:11:33;22.40;99.90
28177;DHT22;15461;41.652;9.378;2023-05-27T07:14:07;22.50;99.90
28177;DHT22;15461;41.652;9.378;2023-05-27T07:16:35;22.70;99.90
28177;DHT22;15461;41.652;9.378;2023-05-27T07:19:02;22.90;99.90
28177;DHT22;15461;41.652;9.378;2023-05-27T07:21:33;23.00;99.90
28177;DHT22;15461;41.652;9.378;2023-05-27T07:24:01;23.10;99.90
28177;DHT22;15461;41.652;9.378;2023-05-27T07:26:36;23.20;99.90
28177;DHT22;15461;41.652;9.378;2023-05-27T07:29:02;23.20;99.90
28177;DHT22;15461;41.652;9.378;2023-05-27T07:31:48;23.40;99.90
28177;DHT22;15461;41.652;9.378;2023-05-27T07:34:16;23.60;99.90
28177;DHT22;15461;41.652;9.378;2023-05-27T07:36:42;23.80;99.90
28177;DHT22;15461;41.652;9.378;2023-05-27T07:39:08;23.90;99.90
28177;DHT22;15461;41.652;9.378;2023-05-27T07:41:34;23.90;99.90
28177;DHT22;15461;41.652;9.378;2023-05-27T07:44:02;24.00;99.90
28177;DHT22;15461;41.652;9.378;2023-05-27T07:46:28;24.10;99.90
28177;DHT22;15461;41.652;9.378;2023-05-27T07:48:54;24.20;99.90
28177;DHT22;15461;41.652;9.378;2023-05-27T07:51:21;24.30;99.90
28177;DHT22;15461;41.652;9.378;2023-05-27T07:53:48;24.40;99.90
28177;DHT22;15461;41.652;9.378;2023-05-27T07:56:15;24.40;99.90
28177;DHT22;15461;41.652;9.378;2023-05-27T07:58:41;24.50;99.90
28177;DHT22;15461;41.652;9.378;2023-05-27T08:01:13;24.50;99.90
28177;DHT22;15461;41.652;9.378;2023-05-27T08:03:45;24.70;99.90
28177;DHT22;15461;41.652;9.378;2023-05-27T08:06:16;24.90;99.90
28177;DHT22;15461;41.652;9.378;2023-05-27T08:09:08;24.90;99.90
28177;DHT22;15461;41.652;9.378;2023-05-27T08:11:54;25.10;99.90
28177;DHT22;15461;41.652;9.378;2023-05-27T08:14:39;25.20;99.90
28177;DHT22;15461;41.652;9.378;2023-05-27T08:17:36;25.30;99.90
28177;DHT22;15461;41.652;9.378;2023-05-27T08:20:19;25.50;99.90
28177;DHT22;15461;41.652;9.378;2023-05-27T08:23:05;25.50;99.90
28177;DHT22;15461;41.652;9.378;2023-05-27T08:26:03;25.30;99.90
28177;DHT22;15461;41.652;9.378;2023-05-27T08:28:36;25.10;99.90
28177;DHT22;15461;41.652;9.378;2023-05-27T08:31:38;25.00;99.90
28177;DHT22;15461;41.652;9.378;2023-05-27T08:34:04;25.00;99.90
28177;DHT22;15461;41.652;9.378;2023-05-27T08:36:31;25.00;99.90
28177;DHT22;15461;41.652;9.378;2023-05-27T08:38:58;25.00;99.90
28177;DHT22;15461;41.652;9.378;2023-05-27T08:41:32;25.30;99.90
28177;DHT22;15461;41.652;9.378;2023-05-27T08:44:02;25.60;99.90
28177;DHT22;15461;41.652;9.378;2023-05-27T08:46:28;25.80;99.90
28177;DHT22;15461;41.652;9.378;2023-05-27T08:48:55;26.10;99.90
28177;DHT22;15461;41.652;9.378;2023-05-27T08:51:22;26.00;99.90
28177;DHT22;15461;41.652;9.378;2023-05-27T08:53:49;25.90;99.90
28177;DHT22;15461;41.652;9.378;2023-05-27T08:56:20;25.90;99.90
28177;DHT22;15461;41.652;9.378;2023-05-27T08:58:48;26.10;99.90
28177;DHT22;15461;41.652;9.378;2023-05-27T09:01:18;26.20;99.90
28177;DHT22;15461;41.652;9.378;2023-05-27T09:03:45;26.30;99.90
28177;DHT22;15461;41.652;9.378;2023-05-27T09:06:12;26.50;99.90
28177;DHT22;15461;41.652;9.378;2023-05-27T09:08:38;26.60;99.90
28177;DHT22;15461;41.652;9.378;2023-05-27T09:11:03;26.50;99.90
28177;DHT22;15461;41.652;9.378;2023-05-27T09:13:33;26.30;99.90
28177;DHT22;15461;41.652;9.378;2023-05-27T09:15:59;26.30;99.90
28177;DHT22;15461;41.652;9.378;2023-05-27T09:18:28;26.50;99.90
28177;DHT22;15461;41.652;9.378;2023-05-27T09:20:55;26.60;99.90
28177;DHT22;15461;41.652;9.378;2023-05-27T09:23:22;26.80;99.90
28177;DHT22;15461;41.652;9.378;2023-05-27T09:25:48;26.80;99.90
28177;DHT22;15461;41.652;9.378;2023-05-27T09:28:22;26.80;99.90
28177;DHT22;15461;41.652;9.378;2023-05-27T09:30:52;26.80;99.90
28177;DHT22;15461;41.652;9.378;2023-05-27T09:33:24;26.80;99.90
28177;DHT22;15461;41.652;9.378;2023-05-27T09:35:50;26.80;99.90
28177;DHT22;15461;41.652;9.378;2023-05-27T09:38:16;26.70;99.90
28177;DHT22;15461;41.652;9.378;2023-05-27T09:40:44;26.70;99.90
28177;DHT22;15461;41.652;9.378;2023-05-27T09:43:14;26.60;99.90
28177;DHT22;15461;41.652;9.378;2023-05-27T09:45:44;26.70;99.90
28177;DHT22;15461;41.652;9.378;2023-05-27T09:48:11;26.80;99.90
28177;DHT22;15461;41.652;9.378;2023-05-27T09:50:39;26.80;99.90
28177;DHT22;15461;41.652;9.378;2023-05-27T09:53:06;26.50;99.90
28177;DHT22;15461;41.652;9.378;2023-05-27T09:55:33;26.40;99.90
28177;DHT22;15461;41.652;9.378;2023-05-27T09:57:59;26.30;99.90
28177;DHT22;15461;41.652;9.378;2023-05-27T10:00:26;26.30;99.90
28177;DHT22;15461;41.652;9.378;2023-05-27T10:02:54;26.30;99.90
28177;DHT22;15461;41.652;9.378;2023-05-27T10:05:23;26.40;99.90
28177;DHT22;15461;41.652;9.378;2023-05-27T10:07:49;26.30;99.90
28177;DHT22;15461;41.652;9.378;2023-05-27T10:10:16;26.50;99.90
28177;DHT22;15461;41.652;9.378;2023-05-27T10:12:45;26.60;99.90
28177;DHT22;15461;41.652;9.378;2023-05-27T10:17:51;26.70;99.90
28177;DHT22;15461;41.652;9.378;2023-05-27T10:20:48;26.80;99.90
28177;DHT22;15461;41.652;9.378;2023-05-27T10:23:19;26.70;99.90
28177;DHT22;15461;41.652;9.378;2023-05-27T10:25:48;26.50;99.90
28177;DHT22;15461;41.652;9.378;2023-05-27T10:28:29;26.40;99.90
28177;DHT22;15461;41.652;9.378;2023-05-27T10:31:23;26.10;99.90
28177;DHT22;15461;41.652;9.378;2023-05-27T10:33:57;26.10;99.90
28177;DHT22;15461;41.652;9.378;2023-05-27T10:36:26;26.30;99.90
28177;DHT22;15461;41.652;9.378;2023-05-27T10:39:15;26.40;99.90
28177;DHT22;15461;41.652;9.378;2023-05-27T10:41:43;26.30;99.90
28177;DHT22;15461;41.652;9.378;2023-05-27T10:44:10;26.40;99.90
28177;DHT22;15461;41.652;9.378;2023-05-27T10:46:40;26.50;99.90
28177;DHT22;15461;41.652;9.378;2023-05-27T10:49:15;26.60;99.90
28177;DHT22;15461;41.652;9.378;2023-05-27T10:51:48;26.70;99.90
28177;DHT22;15461;41.652;9.378;2023-05-27T10:54:15;26.70;99.90
28177;DHT22;15461;41.652;9.378;2023-05-27T10:56:51;26.40;99.90
28177;DHT22;15461;41.652;9.378;2023-05-27T10:59:22;26.20;99.90
28177;DHT22;15461;41.652;9.378;2023-05-27T11:01:52;26.10;99.90
28177;DHT22;15461;41.652;9.378;2023-05-27T11:04:19;26.10;99.90
28177;DHT22;15461;41.652;9.378;2023-05-27T11:07:00;26.30;99.90
28177;DHT22;15461;41.652;9.378;2023-05-27T11:09:26;26.70;99.90
28177;DHT22;15461;41.652;9.378;2023-05-27T11:11:56;26.90;99.90
28177;DHT22;15461;41.652;9.378;2023-05-27T11:14:25;27.00;99.90
28177;DHT22;15461;41.652;9.378;2023-05-27T11:16:51;27.10;99.90
28177;DHT22;15461;41.652;9.378;2023-05-27T11:19:20;27.10;99.90
28177;DHT22;15461;41.652;9.378;2023-05-27T11:21:47;27.20;99.90
28177;DHT22;15461;41.652;9.378;2023-05-27T11:24:17;27.30;99.90
28177;DHT22;15461;41.652;9.378;2023-05-27T11:26:45;27.40;99.90
28177;DHT22;15461;41.652;9.378;2023-05-27T11:29:14;27.40;99.90
28177;DHT22;15461;41.652;9.378;2023-05-27T11:31:40;27.40;99.90
28177;DHT22;15461;41.652;9.378;2023-05-27T11:34:14;27.40;99.90
28177;DHT22;15461;41.652;9.378;2023-05-27T11:36:41;27.30;99.90
28177;DHT22;15461;41.652;9.378;2023-05-27T11:39:14;27.20;99.90
28177;DHT22;15461;41.652;9.378;2023-05-27T11:41:48;27.10;99.90
28177;DHT22;15461;41.652;9.378;2023-05-27T11:44:17;26.80;99.90
28177;DHT22;15461;41.652;9.378;2023-05-27T11:46:44;26.60;99.90
28177;DHT22;15461;41.652;9.378;2023-05-27T11:49:12;26.80;99.90
28177;DHT22;15461;41.652;9.378;2023-05-27T11:51:49;26.90;99.90
28177;DHT22;15461;41.652;9.378;2023-05-27T11:54:18;27.10;99.90
28177;DHT22;15461;41.652;9.378;2023-05-27T11:56:46;27.10;99.90
28177;DHT22;15461;41.652;9.378;2023-05-27T11:59:13;27.10;99.90
28177;DHT22;15461;41.652;9.378;2023-05-27T12:01:40;27.30;99.90
28177;DHT22;15461;41.652;9.378;2023-05-27T12:04:06;27.20;99.90
28177;DHT22;15461;41.652;9.378;2023-05-27T12:06:32;26.90;99.90
28177;DHT22;15461;41.652;9.378;2023-05-27T12:08:58;26.80;99.90
28177;DHT22;15461;41.652;9.378;2023-05-27T12:11:24;26.90;99.90
28177;DHT22;15461;41.652;9.378;2023-05-27T12:13:52;27.00;99.90
28177;DHT22;15461;41.652;9.378;2023-05-27T12:16:18;27.10;99.90
28177;DHT22;15461;41.652;9.378;2023-05-27T12:18:44;27.10;99.90
28177;DHT22;15461;41.652;9.378;2023-05-27T12:21:11;27.10;99.90
28177;DHT22;15461;41.652;9.378;2023-05-27T12:23:37;27.10;99.90
28177;DHT22;15461;41.652;9.378;2023-05-27T12:26:03;27.20;99.90
28177;DHT22;15461;41.652;9.378;2023-05-27T12:28:29;27.10;99.90
28177;DHT22;15461;41.652;9.378;2023-05-27T12:30:55;27.20;99.90
28177;DHT22;15461;41.652;9.378;2023-05-27T12:33:21;27.10;99.90
28177;DHT22;15461;41.652;9.378;2023-05-27T12:35:47;27.30;99.90
28177;DHT22;15461;41.652;9.378;2023-05-27T12:38:13;27.40;99.90
28177;DHT22;15461;41.652;9.378;2023-05-27T12:40:39;27.30;99.90
28177;DHT22;15461;41.652;9.378;2023-05-27T12:43:05;27.40;99.90
28177;DHT22;15461;41.652;9.378;2023-05-27T12:45:32;27.70;99.90
28177;DHT22;15461;41.652;9.378;2023-05-27T12:47:58;27.40;99.90
28177;DHT22;15461;41.652;9.378;2023-05-27T12:50:25;27.30;99.90
28177;DHT22;15461;41.652;9.378;2023-05-27T12:52:51;27.30;99.90
28177;DHT22;15461;41.652;9.378;2023-05-27T12:55:19;27.40;99.90
28177;DHT22;15461;41.652;9.378;2023-05-27T12:57:47;27.20;99.90
28177;DHT22;15461;41.652;9.378;2023-05-27T13:00:14;27.10;99.90
28177;DHT22;15461;41.652;9.378;2023-05-27T13:02:41;27.00;99.90
28177;DHT22;15461;41.652;9.378;2023-05-27T13:05:08;27.00;99.90
28177;DHT22;15461;41.652;9.378;2023-05-27T13:07:35;27.10;99.90
28177;DHT22;15461;41.652;9.378;2023-05-27T13:10:10;27.10;99.90
28177;DHT22;15461;41.652;9.378;2023-05-27T13:12:37;27.10;99.90
28177;DHT22;15461;41.652;9.378;2023-05-27T13:15:03;27.10;99.90
28177;DHT22;15461;41.652;9.378;2023-05-27T13:17:29;27.20;99.90
28177;DHT22;15461;41.652;9.378;2023-05-27T13:19:55;27.20;99.90
28177;DHT22;15461;41.652;9.378;2023-05-27T13:22:21;26.90;99.90
28177;DHT22;15461;41.652;9.378;2023-05-27T13:24:47;26.30;99.90
28177;DHT22;15461;41.652;9.378;2023-05-27T13:27:13;26.00;99.90
28177;DHT22;15461;41.652;9.378;2023-05-27T13:29:40;25.90;99.90
28177;DHT22;15461;41.652;9.378;2023-05-27T13:32:07;25.80;99.90
28177;DHT22;15461;41.652;9.378;2023-05-27T13:34:34;25.90;99.90
28177;DHT22;15461;41.652;9.378;2023-05-27T13:37:01;25.90;99.90
28177;DHT22;15461;41.652;9.378;2023-05-27T13:39:28;26.10;99.90
28177;DHT22;15461;41.652;9.378;2023-05-27T13:41:54;26.20;99.90
28177;DHT22;15461;41.652;9.378;2023-05-27T13:44:20;26.30;99.90
28177;DHT22;15461;41.652;9.378;2023-05-27T13:46:45;26.40;99.90
28177;DHT22;15461;41.652;9.378;2023-05-27T13:49:11;26.20;99.90
28177;DHT22;15461;41.652;9.378;2023-05-27T13:51:44;26.10;99.90
28177;DHT22;15461;41.652;9.378;2023-05-27T13:54:10;25.90;99.90
28177;DHT22;15461;41.652;9.378;2023-05-27T13:56:36;25.80;99.90
28177;DHT22;15461;41.652;9.378;2023-05-27T13:59:02;25.80;99.90
28177;DHT22;15461;41.652;9.378;2023-05-27T14:01:32;25.80;99.90
28177;DHT22;15461;41.652;9.378;2023-05-27T14:04:01;25.70;99.90
28177;DHT22;15461;41.652;9.378;2023-05-27T14:06:27;25.80;99.90
28177;DHT22;15461;41.652;9.378;2023-05-27T14:08:53;25.80;99.90
28177;DHT22;15461;41.652;9.378;2023-05-27T14:11:19;25.70;99.90
28177;DHT22;15461;41.652;9.378;2023-05-27T14:13:47;25.50;99.90
28177;DHT22;15461;41.652;9.378;2023-05-27T14:16:14;25.60;99.90
28177;DHT22;15461;41.652;9.378;2023-05-27T14:18:40;25.50;99.90
28177;DHT22;15461;41.652;9.378;2023-05-27T14:21:07;25.40;99.90
28177;DHT22;15461;41.652;9.378;2023-05-27T14:23:33;25.30;99.90
28177;DHT22;15461;41.652;9.378;2023-05-27T14:25:59;25.20;99.90
28177;DHT22;15461;41.652;9.378;2023-05-27T14:28:25;25.40;99.90
28177;DHT22;15461;41.652;9.378;2023-05-27T14:30:51;25.50;99.90
28177;DHT22;15461;41.652;9.378;2023-05-27T14:33:19;25.70;99.90
28177;DHT22;15461;41.652;9.378;2023-05-27T14:35:45;25.90;99.90
28177;DHT22;15461;41.652;9.378;2023-05-27T14:38:12;26.10;99.90
28177;DHT22;15461;41.652;9.378;2023-05-27T14:40:38;26.10;99.90
28177;DHT22;15461;41.652;9.378;2023-05-27T14:43:05;26.20;99.90
28177;DHT22;15461;41.652;9.378;2023-05-27T14:45:32;26.30;99.90
28177;DHT22;15461;41.652;9.378;2023-05-27T14:47:58;26.30;99.90
28177;DHT22;15461;41.652;9.378;2023-05-27T14:50:24;26.30;99.90
28177;DHT22;15461;41.652;9.378;2023-05-27T14:52:52;26.50;99.90
28177;DHT22;15461;41.652;9.378;2023-05-27T14:55:18;26.50;99.90
28177;DHT22;15461;41.652;9.378;2023-05-27T14:57:44;26.40;99.90
28177;DHT22;15461;41.652;9.378;2023-05-27T15:00:10;26.40;99.90
28177;DHT22;15461;41.652;9.378;2023-05-27T15:02:37;26.50;99.90
28177;DHT22;15461;41.652;9.378;2023-05-27T15:05:05;26.30;99.90
28177;DHT22;15461;41.652;9.378;2023-05-27T15:07:35;26.20;99.90
28177;DHT22;15461;41.652;9.378;2023-05-27T15:10:02;26.30;99.90
28177;DHT22;15461;41.652;9.378;2023-05-27T15:12:45;26.40;99.90
28177;DHT22;15461;41.652;9.378;2023-05-27T15:15:17;26.40;99.90
28177;DHT22;15461;41.652;9.378;2023-05-27T15:17:43;26.10;99.90
28177;DHT22;15461;41.652;9.378;2023-05-27T15:20:14;25.80;99.90
28177;DHT22;15461;41.652;9.378;2023-05-27T15:22:40;25.80;99.90
28177;DHT22;15461;41.652;9.378;2023-05-27T15:25:07;25.70;99.90
28177;DHT22;15461;41.652;9.378;2023-05-27T15:27:33;25.70;99.90
28177;DHT22;15461;41.652;9.378;2023-05-27T15:29:59;25.60;99.90
28177;DHT22;15461;41.652;9.378;2023-05-27T15:32:25;25.60;99.90
28177;DHT22;15461;41.652;9.378;2023-05-27T15:34:51;25.60;99.90
28177;DHT22;15461;41.652;9.378;2023-05-27T15:37:17;25.70;99.90
28177;DHT22;15461;41.652;9.378;2023-05-27T15:39:43;25.80;99.90
28177;DHT22;15461;41.652;9.378;2023-05-27T15:42:10;25.80;99.90
28177;DHT22;15461;41.652;9.378;2023-05-27T15:44:36;26.00;99.90